Latest Coastal Weather Observations for Maria Island

IDT60701

Issued at 4:02 am EST Saturday 28 May 2016 (issued every 10 minutes, with the page automatically refreshed every 10 minutes)

About coastal observations | Map of coastal stations | Coastal observations for TAS | Marine services | Other Formats
Station Details ID: 092124 Name: MARIA ISLAND (POINT LESUEUR) Lat: -42.66 Lon: 148.02 Height: 28.0 m
Data from the previous 72 hours. | See also: Recent months at Maria Island
Date/Time
EST
Temp

°C
Wind Pressure Rain
since 9am
mm
Weather Cloud Vis
km
Sea
Height
m
Swell
Dir
 
Speed
knots
Gust
knots
hPa Trend Height
m
Period
s
Dir
28/04:00am 8.1 W 6 7 1006.5 - 2.6 - - - - - - -
28/03:30am 8.5 WNW 6 7 1006.5 - 2.6 - - - - - - -
28/03:00am 9.1 W 6 7 1006.4 - 2.6 - - - - - - -
28/02:30am 9.6 SW 6 8 1006.6 - 2.6 - - - - - - -
28/02:00am 9.7 WSW 6 9 1006.6 - 2.6 - - - - - - -
28/01:30am 9.9 WSW 9 10 1006.6 - 2.6 - - - - - - -
28/01:00am 10.3 SW 9 11 1006.6 - 2.6 - - - - - - -
28/12:30am 10.3 WSW 8 10 1006.6 - 2.6 - - - - - - -
28/12:00am 10.0 WSW 7 9 1006.8 - 2.6 - - - - - - -
 
Date/Time
EST
Temp

°C
Wind Pressure Rain
since 9am
mm
Weather Cloud Vis
km
Sea
Height
m
Swell
Dir
 
Speed
knots
Gust
knots
hPa Trend Height
m
Period
s
Dir
27/11:30pm 10.7 SW 12 14 1006.7 - 2.6 - - - - - - -
27/11:00pm 10.4 SSW 15 18 1006.7 - 2.6 - - - - - - -
27/10:30pm 10.5 SSW 15 18 1006.8 - 2.6 - - - - - - -
27/10:00pm 10.7 SSW 15 18 1006.9 - 2.6 - - - - - - -
27/09:30pm 10.8 SSW 16 19 1006.8 - 2.6 - - - - - - -
27/09:00pm 11.0 SSW 14 17 1006.7 - 2.6 Recent precip. - - - - - -
27/08:30pm 10.8 SSW 15 18 1006.6 - 2.6 - - - - - - -
27/08:00pm 10.6 SW 16 19 1006.4 - 2.4 - - - - - - -
27/07:30pm 10.6 SSW 14 17 1006.3 - 2.4 - - - - - - -
27/07:00pm 10.5 SW 17 20 1006.0 - 2.4 - - - - - - -
27/06:30pm 10.3 SSW 19 23 1005.7 - 2.2 - - - - - - -
27/06:00pm 10.6 SW 18 20 1005.6 - 2.2 - - - - - - -
27/05:30pm 11.0 SW 19 22 1005.2 - 2.2 - - - - - - -
27/05:00pm 11.1 SW 18 21 1004.8 - 2.2 - - - - - - -
27/04:30pm 11.2 SSW 17 21 1004.6 - 2.2 - - - - - - -
27/04:00pm 11.1 SSW 17 21 1004.3 - 2.2 - - - - - - -
27/03:30pm 10.9 SSW 17 20 1004.0 - 2.2 - - - - - - -
27/03:00pm 10.9 SSW 17 19 1003.7 - 2.2 - - - - - - -
27/02:30pm 11.0 SSW 19 22 1003.4 - 2.2 - - - - - - -
27/02:00pm 11.1 SSW 20 24 1003.3 - 2.2 - - - - - - -
27/01:30pm 10.9 SSW 18 21 1003.3 - 2.2 - - - - - - -
27/01:00pm 10.9 SSW 17 21 1003.3 - 2.2 - - - - - - -
27/12:30pm 10.8 SSW 21 24 1003.3 - 2.0 - - - - - - -
27/12:00pm 10.7 SSW 19 23 1003.4 - 2.0 Rain - - - - - -
27/11:30am 10.5 SSW 17 20 1003.5 - 1.8 - - - - - - -
27/11:00am 10.4 SSW 15 17 1003.7 - 1.2 - - - - - - -
27/10:30am 10.4 SSW 14 17 1003.8 - 0.8 - - - - - - -
27/10:00am 10.2 SSW 14 17 1003.6 - 0.6 - - - - - - -
27/09:30am 10.2 SSW 15 17 1003.5 - 0.4 - - - - - - -
27/09:00am 10.2 SSW 16 19 1003.2 - 11.0 Recent precip. - - - - - -
27/08:30am 10.1 SSW 15 18 1003.1 - 11.0 - - - - - - -
27/08:00am 10.0 SSW 15 19 1003.0 - 10.8 - - - - - - -
27/07:30am 9.7 SSW 15 17 1002.8 - 10.8 - - - - - - -
27/07:00am 9.7 SSW 13 16 1002.9 - 10.4 - - - - - - -
27/06:30am 9.6 S 14 18 1002.7 - 9.8 - - - - - - -
27/06:00am 9.6 S 14 16 1002.6 - 9.6 Rain - - - - - -
27/05:30am 9.4 SSW 14 17 1002.5 - 8.8 - - - - - - -
27/05:00am 9.4 S 15 18 1002.3 - 8.2 - - - - - - -
27/04:30am 9.2 SSW 15 18 1002.3 - 7.4 - - - - - - -
27/04:00am 9.2 SSW 13 16 1002.2 - 7.2 - - - - - - -
27/03:30am 9.1 SSW 13 15 1002.1 - 6.4 - - - - - - -
27/03:00am 9.2 SSW 12 14 1002.2 - 5.4 Rain - - - - - -
27/02:30am 9.6 S 15 18 1002.2 - 4.8 - - - - - - -
27/02:00am 9.4 SSW 14 17 1002.1 - 4.0 - - - - - - -
27/01:30am 9.2 SSW 13 16 1002.0 - 3.0 - - - - - - -
27/01:00am 9.2 SSW 16 19 1002.0 - 2.6 - - - - - - -
27/12:30am 9.4 S 16 21 1002.0 - 1.8 - - - - - - -
27/12:00am 9.5 S 19 21 1002.1 - 1.2 Rain - - - - - -
 
Date/Time
EST
Temp

°C
Wind Pressure Rain
since 9am
mm
Weather Cloud Vis
km
Sea
Height
m
Swell
Dir
 
Speed
knots
Gust
knots
hPa Trend Height
m
Period
s
Dir
26/11:30pm 10.0 SSW 20 23 1002.1 - 0.4 - - - - - - -
26/11:00pm 10.0 SW 21 27 1001.9 - 0.0 - - - - - - -
26/10:30pm 10.3 SW 26 31 1001.6 - 0.0 - - - - - - -
26/10:00pm 10.9 SW 24 30 1001.7 - 0.0 - - - - - - -
26/09:30pm 11.3 SSW 22 28 1001.5 - 0.0 - - - - - - -
26/09:00pm 11.7 SSW 17 22 1001.6 - 0.0 - - - - - - -
26/08:30pm 11.9 SSW 19 23 1001.3 - 0.0 - - - - - - -
26/08:00pm 11.9 SSW 18 21 1001.3 - 0.0 - - - - - - -
26/07:30pm 12.1 SSW 19 22 1001.4 - 0.0 - - - - - - -
26/07:00pm 12.0 SSW 19 23 1001.2 - 0.0 - - - - - - -
26/06:30pm 12.0 SSW 18 21 1001.2 - 0.0 - - - - - - -
26/06:00pm 12.0 S 19 22 1001.0 - 0.0 - - - - - - -
26/05:30pm 12.1 SSW 19 22 1000.8 - 0.0 - - - - - - -
26/05:00pm 12.0 SSW 19 22 1000.7 - 0.0 - - - - - - -
26/04:30pm 12.1 S 19 23 1000.4 - 0.0 - - - - - - -
26/04:00pm 12.1 SSW 18 21 1000.3 - 0.0 - - - - - - -
26/03:30pm 12.1 SSW 17 20 1000.2 - 0.0 - - - - - - -
26/03:00pm 12.1 SSW 15 18 1000.4 - 0.0 - - - - - - -
26/02:30pm 12.1 SSW 17 22 1000.4 - 0.0 - - - - - - -
26/02:00pm 12.1 SSW 18 21 1000.4 - 0.0 - - - - - - -
26/01:30pm 12.1 SSW 20 24 1000.4 - 0.0 - - - - - - -
26/01:00pm 12.2 SSW 17 20 1000.6 - 0.0 - - - - - - -
26/12:30pm 12.3 SSW 16 19 1000.6 - 0.0 - - - - - - -
26/12:00pm 12.1 SSW 19 22 1000.6 - 0.0 - - - - - - -
26/11:30am 12.2 SSW 17 20 1001.0 - 0.0 - - - - - - -
26/11:00am 12.1 SSW 16 19 1001.3 - 0.0 - - - - - - -
26/10:30am 12.1 SSW 15 17 1001.7 - 0.0 - - - - - - -
26/10:00am 12.2 SSW 14 16 1002.0 - 0.0 - - - - - - -
26/09:30am 12.1 SSW 12 14 1002.1 - 0.0 - - - - - - -
26/09:00am 12.2 SSW 12 14 1002.2 - 0.0 - - - - - - -
26/08:30am 12.0 SSW 13 15 1002.1 - 0.0 - - - - - - -
26/08:00am 12.3 S 12 14 1002.0 - 0.0 - - - - - - -
26/07:30am 12.5 SSW 12 14 1001.9 - 0.0 - - - - - - -
26/07:00am 12.2 WSW 4 7 1001.9 - 0.0 - - - - - - -
26/06:30am 12.6 N 2 2 1001.6 - 0.0 - - - - - - -
26/06:00am 12.3 ESE 1 2 1001.4 - 0.0 - - - - - - -
26/05:30am 12.6 S 4 6 1001.5 - 0.0 - - - - - - -
26/05:00am 12.8 W 6 8 1001.8 - 0.0 - - - - - - -
26/04:30am 13.1 NNW 7 8 1001.5 - 0.0 - - - - - - -
26/04:00am 13.2 N 8 9 1001.5 - 0.0 - - - - - - -
26/03:30am 13.3 N 10 12 1001.4 - 0.0 - - - - - - -
26/03:00am 13.3 N 13 15 1001.4 - 0.0 - - - - - - -
26/02:30am 13.2 N 13 15 1001.6 - 0.0 - - - - - - -
26/02:00am 13.4 N 15 18 1001.5 - 0.0 - - - - - - -
26/01:30am 13.3 N 16 21 1001.6 - 0.0 - - - - - - -
26/01:00am 13.3 N 16 18 1001.8 - 0.0 - - - - - - -
26/12:30am 13.2 N 13 17 1002.2 - 0.0 - - - - - - -
26/12:00am 12.8 N 11 13 1002.7 - 0.0 - - - - - - -
 
Date/Time
EST
Temp

°C
Wind Pressure Rain
since 9am
mm
Weather Cloud Vis
km
Sea
Height
m
Swell
Dir
 
Speed
knots
Gust
knots
hPa Trend Height
m
Period
s
Dir
25/11:30pm 12.6 N 9 10 1003.0 - 0.0 - - - - - - -
25/11:00pm 12.7 N 9 11 1003.3 - 0.0 - - - - - - -
25/10:30pm 12.7 N 10 12 1003.5 - 0.0 - - - - - - -
25/10:00pm 12.6 N 11 12 1003.7 - 0.0 - - - - - - -
25/09:30pm 12.6 N 13 14 1004.0 - 0.0 - - - - - - -
25/09:00pm 12.5 N 13 15 1004.1 - 0.0 - - - - - - -
25/08:30pm 12.2 N 13 16 1004.2 - 0.0 - - - - - - -
25/08:00pm 12.3 NNW 11 15 1004.4 - 0.0 - - - - - - -
25/07:30pm 12.1 N 13 17 1004.8 - 0.0 - - - - - - -
25/07:00pm 11.7 N 12 15 1005.2 - 0.0 - - - - - - -
25/06:30pm 11.1 N 13 15 1005.4 - 0.0 - - - - - - -
25/06:00pm 10.8 N 15 17 1005.4 - 0.0 - - - - - - -
25/05:30pm 11.0 N 14 17 1005.6 - 0.0 - - - - - - -
25/05:00pm 10.7 N 14 17 1005.4 - 0.0 - - - - - - -
25/04:30pm 10.8 N 15 18 1005.8 - 0.0 - - - - - - -
25/04:00pm 10.6 N 14 17 1006.1 - 0.0 - - - - - - -
25/03:30pm 10.8 N 14 16 1006.4 - 0.0 - - - - - - -
25/03:00pm 10.6 N 14 16 1006.8 - 0.0 - - - - - - -
25/02:30pm 10.9 N 12 14 1007.0 - 0.0 - - - - - - -
25/02:00pm 11.1 N 11 14 1007.3 - 0.0 - - - - - - -
25/01:30pm 10.0 N 10 12 1007.9 - 0.0 - - - - - - -
25/01:00pm 9.6 N 8 10 1007.8 - 0.0 - - - - - - -
25/12:30pm 9.4 NNE 7 8 1008.2 - 0.0 - - - - - - -
25/12:00pm 9.6 N 9 10 1009.5 - 0.0 - - - - - - -
25/11:30am 9.4 N 8 9 1010.1 - 0.0 - - - - - - -
25/11:00am 8.8 NNE 4 5 1010.7 - 0.0 - - - - - - -
25/10:30am 8.9 NW 7 8 1011.6 - 0.0 - - - - - - -
25/10:00am 8.6 WNW 8 11 1011.9 - 0.0 - - - - - - -
25/09:30am 8.1 WNW 9 11 1012.1 - 0.0 - - - - - - -
25/09:00am 7.6 WNW 13 16 1012.3 - 1.2 - - - - - - -
25/08:30am 7.0 WNW 12 16 1012.5 - 1.2 - - - - - - -
25/08:00am 7.7 NNE 3 7 1011.7 - 1.2 - - - - - - -
25/07:30am 7.0 WNW 8 10 1011.7 - 1.2 - - - - - - -
25/07:00am 7.0 WNW 14 16 1012.5 - 1.2 - - - - - - -
25/06:30am 6.6 WNW 13 16 1012.4 - 1.2 - - - - - - -
25/06:00am 6.7 WNW 11 13 1012.7 - 1.2 - - - - - - -
25/05:30am 6.8 WNW 14 16 1013.0 - 1.2 - - - - - - -
25/05:00am 6.8 WNW 10 11 1012.9 - 1.2 - - - - - - -
25/04:30am 7.1 W 13 15 1012.9 - 1.2 - - - - - - -

Other Formats:

Comma delimited format used in spreadsheet applications
http://www.bom.gov.au/fwo/IDT60701/IDT60701.95988.axf

JavaScript Object Notation format (JSON) in row-major order
http://www.bom.gov.au/fwo/IDT60701/IDT60701.95988.json